Time;durP1;ratioP1;P1;durP2;ratioP2;P2;SDS_P1;SDS_P2;PMS_P1;PMS_P2;Temp;Humidity;BMP_temperature;BMP_pressure;BME280_temperature;BME280_humidity;BME280_pressure;Samples;Min_cycle;Max_cycle;Signal;HPM_P1;HPM_P2
2022/09/16 00:01:00;;;;;;;5.07;1.50;;;13.70;99.90;;;;;;5060398;28;20192;-82
2022/09/16 00:03:26;;;;;;;2.63;1.40;;;13.70;99.90;;;;;;5059121;28;20640;-82
2022/09/16 00:05:52;;;;;;;4.50;1.27;;;13.70;99.90;;;;;;5060952;28;20259;-82
2022/09/16 00:08:21;;;;;;;4.03;1.00;;;13.70;99.90;;;;;;5058485;28;20208;-82
2022/09/16 00:10:47;;;;;;;4.90;1.10;;;13.70;99.90;;;;;;5058960;28;20179;-82
2022/09/16 00:13:13;;;;;;;4.53;1.27;;;13.70;99.90;;;;;;5060327;28;20183;-82
2022/09/16 00:15:43;;;;;;;4.10;1.10;;;13.70;99.90;;;;;;5058361;28;20179;-82
2022/09/16 00:18:10;;;;;;;3.43;1.30;;;13.70;99.90;;;;;;5056858;28;20249;-82
2022/09/16 00:20:41;;;;;;;8.37;1.50;;;13.60;99.90;;;;;;5058997;28;20654;-82
2022/09/16 00:23:06;;;;;;;7.87;1.23;;;13.60;99.90;;;;;;5057356;28;20168;-82
2022/09/16 00:25:32;;;;;;;7.07;1.37;;;13.60;99.90;;;;;;5058231;28;20285;-82
2022/09/16 00:27:57;;;;;;;7.03;1.53;;;13.70;99.90;;;;;;5057683;28;20231;-82
2022/09/16 00:30:23;;;;;;;4.83;1.30;;;13.70;99.90;;;;;;5057288;28;20275;-82
2022/09/16 00:32:48;;;;;;;5.57;0.93;;;13.70;99.90;;;;;;5057972;28;20652;-81
2022/09/16 00:35:14;;;;;;;4.83;0.93;;;13.60;99.90;;;;;;5057958;28;20190;-81
2022/09/16 00:37:39;;;;;;;3.53;1.37;;;13.60;99.90;;;;;;5059853;28;20206;-81
2022/09/16 00:40:05;;;;;;;4.30;0.97;;;13.60;99.90;;;;;;5057335;28;20196;-81
2022/09/16 00:42:36;;;;;;;3.33;0.90;;;13.60;99.90;;;;;;5059003;28;20174;-81
2022/09/16 00:45:22;;;;;;;3.37;1.03;;;13.60;99.90;;;;;;5059024;28;20160;-82
2022/09/16 00:48:01;;;;;;;3.33;0.90;;;13.50;99.90;;;;;;5059096;28;20237;-82
2022/09/16 00:50:32;;;;;;;6.93;1.33;;;13.50;99.90;;;;;;5057962;28;20238;-82
2022/09/16 00:52:59;;;;;;;3.70;1.03;;;13.50;99.90;;;;;;5060575;28;20183;-81
2022/09/16 00:55:29;;;;;;;1.97;0.77;;;13.40;99.90;;;;;;5057834;28;20182;-82
2022/09/16 00:57:58;;;;;;;3.30;1.00;;;13.40;99.90;;;;;;5057400;28;20669;-82
2022/09/16 01:00:24;;;;;;;3.87;0.87;;;13.40;99.90;;;;;;5060244;28;20676;-82
2022/09/16 01:02:50;;;;;;;5.07;1.03;;;13.40;99.90;;;;;;5059315;28;20164;-83
2022/09/16 01:05:20;;;;;;;2.23;0.77;;;13.30;99.90;;;;;;5058886;28;20168;-82
2022/09/16 01:07:48;;;;;;;4.83;0.93;;;13.40;99.90;;;;;;5063268;28;20201;-81
2022/09/16 01:10:17;;;;;;;2.37;0.83;;;13.30;99.90;;;;;;5062769;28;20160;-81
2022/09/16 01:12:46;;;;;;;3.47;0.90;;;13.30;99.90;;;;;;5061471;28;20183;-81
2022/09/16 01:15:14;;;;;;;3.43;0.80;;;13.30;99.90;;;;;;5062802;28;20526;-81
2022/09/16 01:18:11;;;;;;;5.17;0.93;;;13.30;99.90;;;;;;5060573;28;20229;-82
2022/09/16 01:21:02;;;;;;;2.13;0.77;;;13.30;99.90;;;;;;5060463;28;20226;-81
2022/09/16 01:23:51;;;;;;;2.20;0.83;;;13.30;99.90;;;;;;5061903;28;20152;-82
2022/09/16 01:26:41;;;;;;;4.10;0.87;;;13.30;99.90;;;;;;5061622;28;20518;-82
2022/09/16 01:29:39;;;;;;;6.23;1.20;;;13.20;99.90;;;;;;5061798;28;20245;-82
2022/09/16 01:32:07;;;;;;;5.33;1.03;;;13.30;99.90;;;;;;5057930;28;20244;-81
2022/09/16 01:34:47;;;;;;;3.23;1.00;;;13.20;99.90;;;;;;5062753;28;20176;-81
2022/09/16 01:37:46;;;;;;;3.97;1.20;;;13.20;99.90;;;;;;5061215;28;20163;-82
2022/09/16 01:40:30;;;;;;;4.37;1.17;;;13.20;99.90;;;;;;5061041;28;20207;-81
2022/09/16 01:43:14;;;;;;;5.00;1.00;;;13.20;99.90;;;;;;5063098;28;20159;-81
2022/09/16 01:46:09;;;;;;;2.57;0.83;;;13.20;99.90;;;;;;5060704;28;20210;-81
2022/09/16 01:48:56;;;;;;;7.27;1.10;;;13.20;99.90;;;;;;5062352;28;20184;-81
2022/09/16 01:51:49;;;;;;;2.07;0.90;;;13.20;99.90;;;;;;5061726;28;20179;-81
2022/09/16 01:54:39;;;;;;;3.77;1.03;;;13.20;99.90;;;;;;5059710;28;20242;-81
2022/09/16 01:57:12;;;;;;;1.53;0.77;;;13.20;99.90;;;;;;5062742;28;20167;-81
2022/09/16 01:59:45;;;;;;;5.90;1.23;;;13.20;99.90;;;;;;5063062;28;20201;-81
2022/09/16 02:02:28;;;;;;;5.30;0.83;;;13.40;99.90;;;;;;5061835;28;20184;-81
2022/09/16 02:04:56;;;;;;;2.43;0.90;;;13.20;99.90;;;;;;5062074;28;20163;-82
2022/09/16 02:07:27;;;;;;;2.73;1.10;;;13.20;99.90;;;;;;5060925;28;20667;-80
2022/09/16 02:10:38;;;;;;;5.13;1.10;;;13.20;99.90;;;;;;5061082;28;20180;-80
2022/09/16 02:13:10;;;;;;;3.93;1.07;;;13.20;99.90;;;;;;5043498;28;20176;-80
2022/09/16 02:15:38;;;;;;;4.10;1.10;;;13.20;99.90;;;;;;5060896;28;20156;-81
2022/09/16 02:18:12;;;;;;;2.83;0.90;;;13.20;99.90;;;;;;5061412;28;20208;-81
2022/09/16 02:20:43;;;;;;;6.10;1.00;;;13.20;99.90;;;;;;5075615;28;20221;-81
2022/09/16 02:23:24;;;;;;;5.90;1.80;;;13.20;99.90;;;;;;5075786;28;20160;-81
2022/09/16 02:25:51;;;;;;;1.73;0.80;;;13.20;99.90;;;;;;5065378;28;20194;-81
2022/09/16 02:28:23;;;;;;;4.10;0.83;;;13.20;99.90;;;;;;5062626;28;20218;-81
2022/09/16 02:30:53;;;;;;;1.87;0.63;;;13.10;99.90;;;;;;5062993;28;20251;-81
2022/09/16 02:33:20;;;;;;;3.10;0.90;;;13.20;99.90;;;;;;5060206;28;20649;-81
2022/09/16 02:35:49;;;;;;;5.03;1.43;;;13.20;99.90;;;;;;5062343;28;20646;-81
2022/09/16 02:38:29;;;;;;;4.50;1.17;;;13.20;99.90;;;;;;5080624;28;20179;-81
2022/09/16 02:40:58;;;;;;;6.00;1.37;;;13.20;99.90;;;;;;5080891;28;20190;-79
2022/09/16 02:43:25;;;;;;;2.23;1.00;;;13.20;99.90;;;;;;5060598;28;20221;-81
2022/09/16 02:46:09;;;;;;;4.03;1.10;;;13.20;99.90;;;;;;5059597;28;20179;-81
2022/09/16 02:48:39;;;;;;;9.03;1.30;;;13.20;99.90;;;;;;5058702;28;20199;-81
2022/09/16 02:51:43;;;;;;;2.67;1.20;;;13.10;99.90;;;;;;5059231;28;20172;-81
2022/09/16 02:54:28;;;;;;;4.30;1.30;;;13.20;99.90;;;;;;5059215;28;20192;-82
2022/09/16 02:56:54;;;;;;;3.67;1.03;;;13.20;99.90;;;;;;5059726;28;20159;-81
2022/09/16 02:59:21;;;;;;;6.07;1.33;;;13.20;99.90;;;;;;5058153;28;20204;-82
2022/09/16 03:01:47;;;;;;;5.07;1.07;;;13.20;99.90;;;;;;5057189;28;20171;-82
2022/09/16 03:04:18;;;;;;;5.93;1.10;;;13.20;99.90;;;;;;5057313;28;20186;-81
2022/09/16 03:06:44;;;;;;;2.13;1.07;;;13.20;99.90;;;;;;5058705;28;20190;-81
2022/09/16 03:09:12;;;;;;;4.83;1.30;;;13.10;99.90;;;;;;5114299;22;20241;-81
2022/09/16 03:12:17;;;;;;;6.67;1.50;;;13.10;99.90;;;;;;5103898;28;20175;-78
2022/09/16 03:14:50;;;;;;;3.17;1.23;;;13.10;99.90;;;;;;5103447;28;20196;-78
2022/09/16 03:17:26;;;;;;;1.80;1.07;;;13.20;99.90;;;;;;5105314;28;20209;-78
2022/09/16 03:20:10;;;;;;;5.47;1.20;;;13.20;99.90;;;;;;5104870;28;20202;-78
2022/09/16 03:22:51;;;;;;;3.93;1.20;;;13.10;99.90;;;;;;5084991;28;20254;-81
2022/09/16 03:25:54;;;;;;;5.73;1.23;;;13.20;99.90;;;;;;5088207;28;20179;-78
2022/09/16 03:28:23;;;;;;;2.97;1.30;;;13.10;99.90;;;;;;5085584;28;20198;-78
2022/09/16 03:31:12;;;;;;;2.53;1.40;;;13.10;99.90;;;;;;5089401;28;20174;-78
2022/09/16 03:33:56;;;;;;;2.00;1.00;;;13.10;99.90;;;;;;5103025;28;20274;-81
2022/09/16 03:36:29;;;;;;;3.80;1.40;;;13.20;99.90;;;;;;5102696;28;20185;-80
2022/09/16 03:38:57;;;;;;;3.70;1.00;;;13.10;99.90;;;;;;5101394;28;20202;-81
2022/09/16 03:41:23;;;;;;;5.60;1.10;;;13.10;99.90;;;;;;5101383;28;20177;-79
2022/09/16 03:43:56;;;;;;;6.23;1.10;;;13.10;99.90;;;;;;5099965;28;20545;-79
2022/09/16 03:46:24;;;;;;;7.70;1.23;;;13.10;99.90;;;;;;5099963;28;20178;-79
2022/09/16 03:48:49;;;;;;;5.23;1.50;;;13.10;99.90;;;;;;5101586;28;20536;-78
2022/09/16 03:51:15;;;;;;;2.97;0.80;;;13.10;99.90;;;;;;5100827;28;20205;-79
2022/09/16 03:53:41;;;;;;;4.63;1.13;;;13.10;99.90;;;;;;5100616;28;20180;-79
2022/09/16 03:56:06;;;;;;;4.27;1.20;;;13.00;99.90;;;;;;5097539;28;20174;-78
2022/09/16 03:58:32;;;;;;;5.20;1.03;;;13.00;99.90;;;;;;5089928;28;20203;-79
2022/09/16 04:00:57;;;;;;;2.63;0.90;;;13.00;99.90;;;;;;5094676;28;20238;-79
2022/09/16 04:03:23;;;;;;;4.00;0.93;;;13.00;99.90;;;;;;5077865;28;20531;-78
2022/09/16 04:05:55;;;;;;;6.60;1.27;;;13.00;99.90;;;;;;5081063;28;20166;-78
2022/09/16 04:08:22;;;;;;;3.80;1.20;;;12.90;99.90;;;;;;5079665;28;21003;-78
2022/09/16 04:11:04;;;;;;;3.27;1.13;;;13.00;99.90;;;;;;5080974;28;20178;-79
2022/09/16 04:13:31;;;;;;;5.87;1.40;;;12.90;99.90;;;;;;5080851;28;20151;-78
2022/09/16 04:15:56;;;;;;;5.77;1.03;;;12.90;99.90;;;;;;5097075;28;20201;-78
2022/09/16 04:18:22;;;;;;;5.80;1.30;;;12.90;99.90;;;;;;5096469;28;20557;-78
2022/09/16 04:20:47;;;;;;;5.70;1.43;;;12.90;99.90;;;;;;5098840;28;20200;-78
2022/09/16 04:23:13;;;;;;;3.30;1.27;;;12.90;99.90;;;;;;5098237;28;20195;-78
2022/09/16 04:25:39;;;;;;;5.37;1.23;;;12.90;99.90;;;;;;5098006;28;20171;-77
2022/09/16 04:28:05;;;;;;;3.33;1.40;;;12.90;99.90;;;;;;5098994;28;20171;-78
2022/09/16 04:30:31;;;;;;;3.03;1.20;;;12.90;99.90;;;;;;5095328;28;20551;-78
2022/09/16 04:32:57;;;;;;;5.53;1.30;;;12.90;99.90;;;;;;5098138;28;20211;-78
2022/09/16 04:35:23;;;;;;;5.87;1.40;;;12.90;99.90;;;;;;5097832;28;20643;-78
2022/09/16 04:37:50;;;;;;;5.60;1.50;;;12.90;99.90;;;;;;5095578;28;20182;-79
2022/09/16 04:40:16;;;;;;;7.27;1.33;;;12.80;99.90;;;;;;5098253;28;20213;-77
2022/09/16 04:42:48;;;;;;;4.80;1.40;;;12.80;99.90;;;;;;5099328;28;20237;-78
2022/09/16 04:45:14;;;;;;;3.30;1.20;;;12.80;99.90;;;;;;5097791;28;20178;-79
2022/09/16 04:47:39;;;;;;;5.53;1.40;;;12.80;99.90;;;;;;5098208;28;20174;-78
2022/09/16 04:50:06;;;;;;;3.17;1.33;;;12.80;99.90;;;;;;5097466;28;20263;-78
2022/09/16 04:52:31;;;;;;;4.27;1.37;;;12.80;99.90;;;;;;5098464;28;20177;-79
2022/09/16 04:54:57;;;;;;;3.87;1.30;;;12.70;99.90;;;;;;5103957;28;20190;-79
2022/09/16 04:57:23;;;;;;;6.30;1.60;;;12.70;99.90;;;;;;5106434;28;20163;-80
2022/09/16 04:59:48;;;;;;;3.77;1.40;;;12.80;99.90;;;;;;5104127;28;20285;-80
2022/09/16 05:02:14;;;;;;;3.53;1.40;;;12.70;99.90;;;;;;5102595;28;20177;-81
2022/09/16 05:04:40;;;;;;;6.73;1.50;;;12.70;99.90;;;;;;5106281;28;20247;-80
2022/09/16 05:07:05;;;;;;;2.90;1.50;;;12.80;99.90;;;;;;5105489;28;20194;-80
2022/09/16 05:09:31;;;;;;;8.57;2.20;;;12.80;99.90;;;;;;5103501;28;20590;-82
2022/09/16 05:11:56;;;;;;;5.03;2.20;;;12.80;99.90;;;;;;5107591;28;20174;-81
2022/09/16 05:14:22;;;;;;;8.73;1.93;;;12.80;99.90;;;;;;5106902;28;20178;-81
2022/09/16 05:16:48;;;;;;;5.77;2.00;;;12.70;99.90;;;;;;5106493;28;20181;-80
2022/09/16 05:19:14;;;;;;;5.40;1.60;;;12.70;99.90;;;;;;5106803;28;20196;-80
2022/09/16 05:21:40;;;;;;;5.80;4.03;;;12.70;99.90;;;;;;5104629;28;20181;-79
2022/09/16 05:24:09;;;;;;;6.93;2.43;;;12.70;99.90;;;;;;5102957;28;20178;-80
2022/09/16 05:26:37;;;;;;;6.47;2.13;;;12.70;99.90;;;;;;5102386;28;20175;-82
2022/09/16 05:29:07;;;;;;;7.50;1.97;;;12.70;99.90;;;;;;5102722;28;20198;-80
2022/09/16 05:31:36;;;;;;;6.70;2.57;;;12.70;99.90;;;;;;5090181;28;20217;-82
2022/09/16 05:34:22;;;;;;;10.03;2.30;;;12.70;99.90;;;;;;5103127;28;20197;-81
2022/09/16 05:36:49;;;;;;;8.57;2.33;;;12.60;99.90;;;;;;5103833;28;20552;-81
2022/09/16 05:39:17;;;;;;;7.23;2.40;;;12.60;99.90;;;;;;5104548;28;20206;-81
2022/09/16 05:41:43;;;;;;;4.67;2.17;;;12.60;99.90;;;;;;5105569;28;20182;-81
2022/09/16 05:44:08;;;;;;;6.10;2.43;;;12.60;99.90;;;;;;5106815;28;20269;-81
2022/09/16 05:46:35;;;;;;;8.00;2.50;;;12.60;99.90;;;;;;5115116;28;20183;-81
2022/09/16 05:49:01;;;;;;;9.30;2.33;;;12.60;99.90;;;;;;5113450;28;20194;-81
2022/09/16 05:51:27;;;;;;;4.50;2.10;;;12.60;99.90;;;;;;5105709;28;20174;-81
2022/09/16 05:53:54;;;;;;;8.53;2.27;;;12.60;99.90;;;;;;5106689;28;20170;-82
2022/09/16 05:56:23;;;;;;;5.97;2.80;;;12.60;99.90;;;;;;5108681;28;20171;-81
2022/09/16 05:58:53;;;;;;;6.40;2.20;;;12.60;99.90;;;;;;5106416;28;20194;-81
2022/09/16 06:01:24;;;;;;;8.10;3.23;;;12.60;99.90;;;;;;5107109;28;20169;-80
2022/09/16 06:03:51;;;;;;;6.37;3.60;;;12.60;99.90;;;;;;5107328;28;20247;-80
2022/09/16 06:06:28;;;;;;;6.80;4.03;;;12.60;99.90;;;;;;5106159;28;20170;-81
2022/09/16 06:08:56;;;;;;;7.47;3.77;;;12.60;99.90;;;;;;5107110;28;20220;-81
2022/09/16 06:11:23;;;;;;;7.17;3.07;;;12.70;99.90;;;;;;5104880;28;20227;-81
2022/09/16 06:14:08;;;;;;;9.90;3.47;;;12.70;99.90;;;;;;5106968;28;20182;-81
2022/09/16 06:16:34;;;;;;;7.53;2.70;;;12.70;99.90;;;;;;5107026;28;20186;-81
2022/09/16 06:19:02;;;;;;;8.00;3.13;;;12.70;99.90;;;;;;5103143;28;20202;-82
2022/09/16 06:21:28;;;;;;;10.50;3.30;;;12.70;99.90;;;;;;5105813;28;20213;-83
2022/09/16 06:23:54;;;;;;;5.43;2.47;;;12.70;99.90;;;;;;5105830;28;20179;-84
2022/09/16 06:26:23;;;;;;;11.87;2.80;;;12.70;99.90;;;;;;5104022;28;20174;-82
2022/09/16 06:28:49;;;;;;;6.90;2.37;;;12.70;99.90;;;;;;5108220;28;20198;-80
2022/09/16 06:31:26;;;;;;;11.80;2.67;;;12.90;99.90;;;;;;5106305;28;20189;-79
2022/09/16 06:33:53;;;;;;;6.83;3.13;;;12.80;99.90;;;;;;5108203;28;20648;-79
2022/09/16 06:36:20;;;;;;;6.47;2.20;;;12.80;99.90;;;;;;5109081;28;20167;-79
2022/09/16 06:38:46;;;;;;;5.83;2.77;;;12.90;99.90;;;;;;5107250;28;20194;-79
2022/09/16 06:41:14;;;;;;;8.63;3.37;;;12.90;99.90;;;;;;5099946;28;20636;-78
2022/09/16 06:43:40;;;;;;;9.30;3.33;;;12.80;99.90;;;;;;5100560;28;20177;-78
2022/09/16 06:46:12;;;;;;;6.87;2.87;;;12.70;99.90;;;;;;5095702;28;20193;-79
2022/09/16 06:48:39;;;;;;;9.53;3.07;;;12.90;99.90;;;;;;5101565;28;20253;-79
2022/09/16 06:51:08;;;;;;;6.90;2.70;;;12.90;99.90;;;;;;5100126;28;20174;-79
2022/09/16 06:53:34;;;;;;;6.70;2.97;;;12.90;99.90;;;;;;5098968;28;20185;-80
2022/09/16 06:56:01;;;;;;;6.80;3.30;;;12.90;99.90;;;;;;5101133;28;20183;-80
2022/09/16 06:58:30;;;;;;;7.03;2.47;;;13.00;99.90;;;;;;5097203;28;20186;-79
2022/09/16 07:00:55;;;;;;;6.53;2.70;;;13.00;99.90;;;;;;5101801;28;20234;-79
2022/09/16 07:03:22;;;;;;;9.03;2.90;;;13.00;99.90;;;;;;5095954;28;20179;-80
2022/09/16 07:06:00;;;;;;;9.57;2.57;;;13.10;99.90;;;;;;5094294;28;20621;-79
2022/09/16 07:08:27;;;;;;;6.63;2.93;;;13.10;99.90;;;;;;5095153;28;20198;-79
2022/09/16 07:11:04;;;;;;;4.97;2.33;;;13.10;99.90;;;;;;5099395;28;20682;-79
2022/09/16 07:13:30;;;;;;;8.27;2.80;;;13.10;99.90;;;;;;5101824;28;20166;-80
2022/09/16 07:16:04;;;;;;;6.90;2.63;;;13.20;99.90;;;;;;5098919;28;20230;-79
2022/09/16 07:18:30;;;;;;;5.10;2.37;;;13.10;99.90;;;;;;5093390;28;20210;-79
2022/09/16 07:21:04;;;;;;;10.03;3.23;;;13.20;99.90;;;;;;5093260;28;20272;-79
2022/09/16 07:23:31;;;;;;;7.57;2.60;;;13.20;99.90;;;;;;5118179;28;20178;-79
2022/09/16 07:26:04;;;;;;;10.87;3.07;;;13.20;99.90;;;;;;5099617;28;20172;-79
2022/09/16 07:28:31;;;;;;;8.97;2.27;;;13.20;99.90;;;;;;5098344;28;20201;-78
2022/09/16 07:31:08;;;;;;;6.53;2.60;;;13.30;99.90;;;;;;5095202;28;20175;-79
2022/09/16 07:33:43;;;;;;;4.40;1.80;;;13.30;99.90;;;;;;5098564;28;20239;-79
2022/09/16 07:36:10;;;;;;;5.07;1.73;;;13.30;99.90;;;;;;5098536;28;20696;-79
2022/09/16 07:38:36;;;;;;;2.80;1.87;;;13.40;99.90;;;;;;5092552;28;20204;-79
2022/09/16 07:41:10;;;;;;;6.23;2.07;;;13.50;99.90;;;;;;5091907;28;20603;-79
2022/09/16 07:43:36;;;;;;;3.07;1.33;;;13.50;99.90;;;;;;5093893;28;20174;-79
2022/09/16 07:46:03;;;;;;;4.13;1.00;;;13.50;99.90;;;;;;5092699;28;20183;-78
2022/09/16 07:48:30;;;;;;;4.30;1.50;;;13.50;99.90;;;;;;5091374;28;20229;-79
2022/09/16 07:50:57;;;;;;;3.73;1.20;;;13.70;99.90;;;;;;5091096;28;20197;-78
2022/09/16 07:53:22;;;;;;;3.00;1.23;;;13.50;99.90;;;;;;5094349;28;20183;-79
2022/09/16 07:55:48;;;;;;;8.20;1.53;;;13.50;99.90;;;;;;5091121;28;20231;-77
2022/09/16 07:58:13;;;;;;;4.03;1.30;;;13.50;99.90;;;;;;5089338;28;20549;-79
2022/09/16 08:00:39;;;;;;;3.17;1.23;;;13.70;99.90;;;;;;5092862;28;20576;-77
2022/09/16 08:03:05;;;;;;;2.17;1.00;;;13.70;99.90;;;;;;5093801;28;20194;-79
2022/09/16 08:05:30;;;;;;;5.90;1.20;;;13.80;99.90;;;;;;5094947;28;20205;-79
2022/09/16 08:07:56;;;;;;;3.00;1.07;;;13.80;99.90;;;;;;5100730;28;20655;-79
2022/09/16 08:10:21;;;;;;;3.73;1.30;;;13.90;99.90;;;;;;5101503;28;20210;-79
2022/09/16 08:12:47;;;;;;;5.27;1.30;;;13.90;99.90;;;;;;5092552;28;20193;-79
2022/09/16 08:15:13;;;;;;;2.60;1.10;;;14.00;99.90;;;;;;5096859;28;20174;-79
2022/09/16 08:17:39;;;;;;;4.00;1.20;;;14.00;99.90;;;;;;5096763;28;20186;-78
2022/09/16 08:20:05;;;;;;;8.00;1.60;;;14.00;99.90;;;;;;5098111;28;20224;-78
2022/09/16 08:22:31;;;;;;;2.90;1.20;;;14.10;99.90;;;;;;5094545;28;20211;-79
2022/09/16 08:24:56;;;;;;;2.57;1.03;;;14.10;99.90;;;;;;5096635;28;20178;-79
2022/09/16 08:27:22;;;;;;;2.90;1.10;;;14.10;99.90;;;;;;5099166;28;20190;-79
2022/09/16 08:29:47;;;;;;;2.67;0.80;;;14.20;1.00;;;;;;5098886;28;20213;-79
2022/09/16 08:32:13;;;;;;;2.80;1.03;;;14.20;99.90;;;;;;5099351;28;20178;-78
2022/09/16 08:34:39;;;;;;;1.17;0.80;;;14.30;99.90;;;;;;5098269;28;20185;-77
2022/09/16 08:37:05;;;;;;;3.50;0.97;;;14.40;1.00;;;;;;5100532;28;20174;-79
2022/09/16 08:39:31;;;;;;;1.27;0.63;;;14.40;99.90;;;;;;5098418;28;20191;-78
2022/09/16 08:42:30;;;;;;;2.27;0.87;;;14.40;1.00;;;;;;5099277;28;20197;-79
2022/09/16 08:45:05;;;;;;;5.80;1.20;;;14.50;35.80;;;;;;5094973;28;20189;-79
2022/09/16 08:47:40;;;;;;;3.00;0.90;;;14.50;99.90;;;;;;5090098;28;20163;-80
2022/09/16 08:50:14;;;;;;;2.23;1.00;;;14.60;1.00;;;;;;5097266;28;20770;-79
2022/09/16 08:52:43;;;;;;;2.77;0.87;;;14.70;1.00;;;;;;5099227;28;20158;-78
2022/09/16 08:55:15;;;;;;;2.03;0.97;;;14.80;99.90;;;;;;5097142;28;20185;-79
2022/09/16 08:58:10;;;;;;;3.20;0.70;;;14.90;1.00;;;;;;5091750;28;20171;-78
2022/09/16 09:00:36;;;;;;;0.90;0.80;;;14.90;1.00;;;;;;5092517;28;20191;-79
2022/09/16 09:03:17;;;;;;;4.73;1.00;;;14.90;96.80;;;;;;5098526;28;20174;-79
2022/09/16 09:05:52;;;;;;;2.50;0.80;;;14.80;1.00;;;;;;5092796;28;20219;-79
2022/09/16 09:08:27;;;;;;;6.17;0.90;;;14.80;99.90;;;;;;5089923;28;20175;-78
2022/09/16 09:11:04;;;;;;;3.67;1.00;;;14.90;1.00;;;;;;5084863;28;20261;-79
2022/09/16 09:14:00;;;;;;;5.33;1.13;;;15.00;99.90;;;;;;5080229;28;20159;-77
2022/09/16 09:16:48;;;;;;;1.80;0.57;;;15.10;99.90;;;;;;5080041;28;20205;-78
2022/09/16 09:19:30;;;;;;;2.23;0.73;;;15.10;1.00;;;;;;5079752;28;20209;-78
2022/09/16 09:22:17;;;;;;;4.63;1.10;;;15.10;1.00;;;;;;5080375;28;20209;-77
2022/09/16 09:25:10;;;;;;;3.37;1.00;;;15.10;77.20;;;;;;5077136;28;20171;-77
2022/09/16 09:30:18;;;;;;;6.57;1.10;;;15.10;1.00;;;;;;5094351;28;20214;-83
2022/09/16 09:33:31;;;;;;;2.90;0.90;;;15.20;1.00;;;;;;5098532;28;20179;-83
2022/09/16 09:36:10;;;;;;;3.57;1.00;;;15.20;99.90;;;;;;5054426;28;20229;-82
2022/09/16 09:38:57;;;;;;;7.20;1.53;;;15.20;12.20;;;;;;5062260;28;20205;-83
2022/09/16 09:41:33;;;;;;;2.97;0.70;;;15.30;1.00;;;;;;5084473;28;20270;-81
2022/09/16 09:44:25;;;;;;;6.10;0.77;;;15.30;99.90;;;;;;5081778;28;20222;-79
2022/09/16 09:46:55;;;;;;;3.17;0.80;;;15.30;99.90;;;;;;5090534;28;20174;-80
2022/09/16 09:49:32;;;;;;;4.87;1.27;;;15.50;99.90;;;;;;5085823;28;20199;-81
2022/09/16 09:52:09;;;;;;;3.20;0.83;;;15.50;99.90;;;;;;5113528;28;20170;-80
2022/09/16 09:54:37;;;;;;;2.40;0.80;;;15.50;1.00;;;;;;5084305;28;20171;-80
2022/09/16 09:57:36;;;;;;;2.40;0.67;;;15.50;99.90;;;;;;5093149;28;20660;-80
2022/09/16 10:00:05;;;;;;;2.67;0.70;;;15.50;99.90;;;;;;5079097;28;20228;-81
2022/09/16 10:02:38;;;;;;;2.17;0.70;;;15.40;7.30;;;;;;5088779;28;20182;-80
2022/09/16 10:05:06;;;;;;;2.07;0.60;;;15.40;1.00;;;;;;5085274;28;20170;-81
2022/09/16 10:07:34;;;;;;;4.03;0.80;;;15.40;99.90;;;;;;5085226;28;20174;-80
2022/09/16 10:10:19;;;;;;;3.23;0.80;;;15.40;1.00;;;;;;5088186;28;20178;-79
2022/09/16 10:12:45;;;;;;;4.17;1.27;;;15.50;1.00;;;;;;5086413;28;20165;-81
2022/09/16 10:15:27;;;;;;;2.67;0.60;;;15.50;99.90;;;;;;5092696;28;20587;-80
2022/09/16 10:17:55;;;;;;;1.50;0.60;;;15.60;99.90;;;;;;5085071;28;20229;-80
2022/09/16 10:20:34;;;;;;;4.23;0.67;;;15.70;99.90;;;;;;5086199;28;20252;-81
2022/09/16 10:23:04;;;;;;;3.10;0.80;;;15.80;1.00;;;;;;5087201;28;20174;-80
2022/09/16 10:25:32;;;;;;;5.20;0.80;;;15.80;1.00;;;;;;5112764;28;20201;-79
2022/09/16 10:28:00;;;;;;;3.20;0.70;;;15.80;1.00;;;;;;5088001;28;20206;-81
2022/09/16 10:30:31;;;;;;;2.30;0.70;;;15.80;1.00;;;;;;5085219;28;20182;-82
2022/09/16 10:33:10;;;;;;;4.40;0.97;;;15.70;99.90;;;;;;5092789;28;20168;-82
2022/09/16 10:35:38;;;;;;;2.73;0.87;;;15.70;99.90;;;;;;5114016;28;20644;-82
2022/09/16 10:38:20;;;;;;;5.23;1.00;;;15.90;99.90;;;;;;5092387;28;20202;-81
2022/09/16 10:40:52;;;;;;;2.20;0.63;;;16.00;1.00;;;;;;5086327;28;20230;-80
2022/09/16 10:43:18;;;;;;;2.47;0.57;;;16.00;1.00;;;;;;5086063;28;20264;-80
2022/09/16 10:45:49;;;;;;;3.97;0.90;;;16.20;1.00;;;;;;5084444;28;20171;-81
2022/09/16 10:48:17;;;;;;;3.33;0.90;;;16.10;1.00;;;;;;5087120;28;20656;-81
2022/09/16 10:51:00;;;;;;;4.20;0.90;;;16.00;99.90;;;;;;5093763;28;20179;-79
2022/09/16 10:53:38;;;;;;;3.87;0.60;;;15.90;99.90;;;;;;5085533;28;20167;-80
2022/09/16 10:56:17;;;;;;;1.53;0.70;;;15.80;99.90;;;;;;5113215;28;20171;-80
2022/09/16 10:58:43;;;;;;;6.50;2.10;;;15.80;1.00;;;;;;5084818;28;20300;-78
2022/09/16 11:01:11;;;;;;;5.50;1.47;;;15.70;99.90;;;;;;5088424;28;20628;-79
2022/09/16 11:04:00;;;;;;;2.27;0.80;;;15.50;1.00;;;;;;5085494;28;20220;-80
2022/09/16 11:06:42;;;;;;;7.13;1.63;;;15.50;1.00;;;;;;5088940;28;20164;-80
2022/09/16 11:09:28;;;;;;;3.73;0.80;;;15.70;99.90;;;;;;5091899;28;20205;-81
2022/09/16 11:12:06;;;;;;;2.23;0.67;;;15.70;99.90;;;;;;5086243;28;20246;-80
2022/09/16 11:14:46;;;;;;;2.07;0.70;;;15.70;99.90;;;;;;5085759;28;20197;-79
2022/09/16 11:17:44;;;;;;;2.27;0.63;;;15.80;1.00;;;;;;5092303;28;20220;-80
2022/09/16 11:20:28;;;;;;;2.53;0.70;;;15.90;99.90;;;;;;5082449;28;20298;-80
2022/09/16 11:23:07;;;;;;;4.23;0.77;;;15.70;1.00;;;;;;5093864;28;20167;-79
2022/09/16 11:25:42;;;;;;;4.67;1.10;;;15.60;99.90;;;;;;5085394;28;20167;-80
2022/09/16 11:28:26;;;;;;;3.20;0.63;;;15.60;1.00;;;;;;5112757;28;20289;-81
2022/09/16 11:31:04;;;;;;;4.17;0.90;;;15.30;99.90;;;;;;5085499;28;20175;-79
2022/09/16 11:33:51;;;;;;;5.03;1.00;;;14.60;1.00;;;;;;5091662;28;20212;-81
2022/09/16 11:36:42;;;;;;;2.80;0.90;;;14.30;99.90;;;;;;5084901;28;20183;-81
2022/09/16 11:39:20;;;;;;;5.10;0.67;;;14.00;99.90;;;;;;5071549;28;20214;-81
2022/09/16 11:41:49;;;;;;;4.80;0.73;;;13.80;99.90;;;;;;5084192;28;20174;-81
2022/09/16 11:44:33;;;;;;;2.10;0.63;;;13.90;99.90;;;;;;5082489;28;20244;-81
2022/09/16 11:47:33;;;;;;;1.27;0.63;;;13.90;99.90;;;;;;5082577;28;20193;-81
2022/09/16 11:50:30;;;;;;;1.73;0.50;;;14.00;99.90;;;;;;5077882;28;20192;-79
2022/09/16 11:53:08;;;;;;;1.27;0.60;;;14.00;99.90;;;;;;5077341;28;20164;-79
2022/09/16 11:55:54;;;;;;;2.07;0.53;;;14.00;99.90;;;;;;5078120;28;20179;-80
2022/09/16 11:59:01;;;;;;;1.73;0.60;;;14.00;99.90;;;;;;5079683;28;20225;-80
2022/09/16 12:01:36;;;;;;;2.07;0.43;;;13.90;99.90;;;;;;5078358;28;20224;-80
2022/09/16 12:04:39;;;;;;;2.43;0.50;;;13.90;99.90;;;;;;5077358;28;20258;-82
2022/09/16 12:07:23;;;;;;;2.17;0.60;;;13.80;99.90;;;;;;5078949;28;20177;-79
2022/09/16 12:09:58;;;;;;;2.33;1.10;;;13.80;99.90;;;;;;5078651;28;20195;-80
2022/09/16 12:12:56;;;;;;;4.60;1.00;;;13.80;99.90;;;;;;5078966;28;20177;-80
2022/09/16 12:15:26;;;;;;;5.00;1.57;;;13.80;99.90;;;;;;5078714;28;20672;-80
2022/09/16 12:18:05;;;;;;;6.67;1.67;;;13.90;99.90;;;;;;5078695;28;20186;-79
2022/09/16 12:20:37;;;;;;;3.87;1.77;;;13.90;99.90;;;;;;5079015;28;20205;-80
2022/09/16 12:23:23;;;;;;;4.80;1.87;;;14.00;99.90;;;;;;5079215;28;20273;-79
2022/09/16 12:26:01;;;;;;;2.37;1.30;;;14.20;99.90;;;;;;5079326;28;20174;-79
2022/09/16 12:29:02;;;;;;;5.37;1.73;;;14.30;99.90;;;;;;5078293;28;20217;-79
2022/09/16 12:31:36;;;;;;;1.40;1.00;;;14.30;99.90;;;;;;5081050;28;20265;-78
2022/09/16 12:34:08;;;;;;;1.80;0.87;;;14.40;99.90;;;;;;5081726;28;20604;-79
2022/09/16 12:36:38;;;;;;;1.37;0.60;;;14.40;99.90;;;;;;5080866;28;20182;-79
2022/09/16 12:39:03;;;;;;;1.13;0.47;;;14.40;1.00;;;;;;5079886;28;20191;-79
2022/09/16 12:41:38;;;;;;;1.47;0.57;;;14.30;1.00;;;;;;5080217;28;20182;-79
2022/09/16 12:44:26;;;;;;;2.90;1.17;;;14.40;1.00;;;;;;5081765;28;20275;-79
2022/09/16 12:47:23;;;;;;;0.37;0.37;;;14.40;99.90;;;;;;5083004;28;20195;-79
2022/09/16 12:50:22;;;;;;;0.80;0.40;;;14.40;99.90;;;;;;5082439;28;20751;-80
2022/09/16 12:52:57;;;;;;;4.03;0.80;;;14.30;1.00;;;;;;5081586;28;20178;-80
2022/09/16 12:55:51;;;;;;;0.83;0.50;;;14.20;1.00;;;;;;5082195;28;20555;-79
2022/09/16 12:58:39;;;;;;;1.57;0.43;;;14.30;1.00;;;;;;5084802;28;20201;-79
2022/09/16 13:01:22;;;;;;;1.30;0.70;;;14.30;1.00;;;;;;5088298;28;20287;-79
2022/09/16 13:04:03;;;;;;;1.80;0.70;;;14.30;1.00;;;;;;5086003;28;20518;-79
2022/09/16 13:06:38;;;;;;;2.97;0.60;;;14.30;1.00;;;;;;5088224;28;20181;-79
2022/09/16 13:09:21;;;;;;;1.30;0.80;;;14.50;1.00;;;;;;5088329;28;20268;-79
2022/09/16 13:11:59;;;;;;;1.20;0.63;;;14.40;94.70;;;;;;5090158;28;20177;-80
2022/09/16 13:14:31;;;;;;;1.77;0.90;;;14.50;1.00;;;;;;5089411;28;20171;-80
2022/09/16 13:16:59;;;;;;;1.57;0.60;;;14.60;99.90;;;;;;5090348;28;20254;-80
2022/09/16 13:19:37;;;;;;;2.00;0.77;;;14.60;1.00;;;;;;5085523;28;20206;-81
2022/09/16 13:22:20;;;;;;;1.67;0.83;;;14.80;1.00;;;;;;5088591;28;20170;-81
2022/09/16 13:24:50;;;;;;;1.90;0.90;;;14.90;1.00;;;;;;5086538;28;20190;-80